Arminto, Wyoming
Current Conditions -  °F | °C
As of 6:53 AM on Tuesday 27 Jan 2015 (Local Time) from KCPR Reporting Station
Clear Clear  
Wind Chill: 36°   Ceiling: Unl
Heat Index: 44°   Visibility: 10mi
Dew Point: 24°   Wind: 18mph
Humidity: 45%   Direction: 220°SW
Pressure: 30.11"   Gusts: 25mph
Location:  43.18°N, 107.26°W
Report Text: KCPR 271353Z 22016G22KT 10SM CLR 07/M04 A3011 RMK AO2 SLP181 T00671044
Loading
Personal Weather Stations






























Interactive Weather Map New forecast layout! Learn more

10-Day Weather Forecast

Advertisements
Track Severe Weather on mobile